Flight Track Log - Related Links

Times and Time Zones

All times are in EDT time to prevent confusion due to time zone crossing. See the UAL878 flight status page for this flight to view local times or setup timezone preferences in your user account.

Time Position Orientation Groundspeed Altitude Reporting Facility
EDT Latitude Longitude Course Direction KTS MPH feet Rate Location/Type
Fri 08:54:57 AM 31.1070 121.8360 137° Southeast 180 207 1,500  Level FlightAware ADS-B
Fri 08:55:17 AM 31.0940 121.8500 137° Southeast 181 208 2,100 1,341 Climbing FlightAware ADS-B
Fri 08:56:22 AM 31.0420 121.8910 146° Southeast 233 268 3,400 1,200 Climbing FlightAware ADS-B
Fri 08:56:52 AM 31.0120 121.9130 148° Southeast 269 310 4,000 1,418 Climbing FlightAware ADS-B
Fri 08:57:17 AM 30.9900 121.9310 145° Southeast 271 312 4,700 2,100 Climbing FlightAware ADS-B
Fri 08:57:32 AM 30.9710 121.9500 139° Southeast 284 327 5,400 2,200 Climbing FlightAware ADS-B
Fri 08:57:47 AM 30.9640 121.9710 111° Southeast 286 329 5,800 2,182 Climbing FlightAware ADS-B
Fri 08:58:27 AM 30.9720 122.0320 81° East 286 329 7,400 2,400 Climbing FlightAware ADS-B
Fri 08:58:57 AM 30.9790 122.0790 80° East 288 331 8,600 2,200 Climbing FlightAware ADS-B
Fri 08:59:27 AM 30.9850 122.1250 81° East 297 342 9,600 1,543 Climbing FlightAware ADS-B
Fri 09:00:07 AM 30.9940 122.1920 81° East 326 375 10,400 1,200 Climbing FlightAware ADS-B
Fri 09:00:47 AM 31.0010 122.2650 84° East 355 409 11,200 1,059 Climbing FlightAware ADS-B
Fri 09:01:32 AM 31.0010 122.3550 90° East 389 448 11,900 1,271 Climbing FlightAware ADS-B
Fri 09:02:12 AM 31.0000 122.4430 91° East 410 472 13,000 1,694 Climbing FlightAware ADS-B
Fri 09:02:57 AM 31.0000 122.5420 90° East 425 489 14,300 1,694 Climbing FlightAware ADS-B
Fri 09:03:37 AM 31.0010 122.6360 89° East 436 502 15,400 1,650 Climbing FlightAware ADS-B
Fri 09:04:17 AM 31.0010 122.7320 90° East 448 516 16,500 1,624 Climbing FlightAware ADS-B
Fri 09:05:02 AM 31.0000 122.8360 91° East 458 527 17,700 1,500 Climbing FlightAware ADS-B
Fri 09:05:37 AM 31.0000 122.9260 90° East 467 537 18,500 1,412 Climbing FlightAware ADS-B
Fri 09:06:27 AM 31.0180 123.0540 81° East 466 536 19,700 1,467 Climbing FlightAware ADS-B
Fri 09:07:07 AM 31.0500 123.1470 68° East 469 540 20,700 1,000 Climbing FlightAware ADS-B
Fri 09:07:57 AM 31.0890 123.2540 67° East 471 542 21,200 333 Climbing FlightAware ADS-B
Fri 09:08:37 AM 31.1170 123.3340 68° East 471 542 21,200  Level FlightAware ADS-B
Fri 09:09:27 AM 31.1540 123.4330 66° East 471 542 21,200  Level FlightAware ADS-B
Fri 09:10:07 AM 31.1830 123.5130 67° East 471 542 21,200  Level FlightAware ADS-B
Fri 09:10:47 AM 31.2120 123.5930 67° East 471 542 21,200  Level FlightAware ADS-B
Fri 09:11:27 AM 31.2400 123.6730 68° East 471 542 21,200 735 Level FlightAware ADS-B
Fri 09:14:00 AM 31.4856 123.9845 47° Northeast  Level Estimated
Fri 09:15:00 AM 31.5817 124.1071 47° Northeast  Level Estimated
Fri 09:15:57 AM 31.5230 124.4740 47° Northeast 513 590 25,000  Level FlightAware ADS-B
Fri 09:16:00 AM 31.6777 124.2299 47° Northeast  Level Estimated
Fri 09:16:37 AM 31.5590 124.5760 67° East 512 589 25,000  Level FlightAware ADS-B
Fri 09:17:22 AM 31.6000 124.6900 67° East 512 589 25,000  Level FlightAware ADS-B
Fri 09:18:02 AM 31.6310 124.7770 67° East 512 589 25,000  Level FlightAware ADS-B
Fri 09:18:42 AM 31.6630 124.8640 67° East 512 589 25,000  Level FlightAware ADS-B
Fri 09:19:22 AM 31.6940 124.9510 67° East 512 589 25,000  Level FlightAware ADS-B
Fri 09:20:02 AM 31.7260 125.0380 67° East 512 589 25,000  Level FlightAware ADS-B
Fri 09:20:42 AM 31.7570 125.1260 67° East 512 589 25,000 168 Level FlightAware ADS-B
Fri 09:23:00 AM 31.9753 125.4119 48° Northeast  Level Estimated
Fri 09:24:00 AM 32.0700 125.5367 48° Northeast  Level Estimated
Fri 09:25:00 AM 32.1646 125.6617 48° Northeast  Level Estimated
Fri 09:26:00 AM 32.2591 125.7870 48° Northeast  Level Estimated
Fri 09:27:00 AM 32.3534 125.9125 48° Northeast  Level Estimated
Fri 09:28:00 AM 32.4477 126.0383 48° Northeast  Level Estimated
Fri 09:29:00 AM 32.5418 126.1644 48° Northeast  Level Estimated
Fri 09:30:00 AM 32.6357 126.2907 49° Northeast  Level Estimated
Fri 09:31:00 AM 32.7296 126.4173 49° Northeast  Level Estimated
Fri 09:32:00 AM 32.8233 126.5441 49° Northeast  Level Estimated
Fri 09:33:00 AM 32.9169 126.6712 49° Northeast  Level Estimated
Fri 09:34:00 AM 33.0103 126.7986 49° Northeast  Level Estimated
Fri 09:35:00 AM 33.1037 126.9263 49° Northeast  Level Estimated
Fri 09:36:00 AM 33.1969 127.0542 49° Northeast  Level Estimated
Fri 09:37:00 AM 33.2899 127.1824 49° Northeast  Level Estimated
Fri 09:38:00 AM 33.3829 127.3109 49° Northeast  Level Estimated
Fri 09:39:00 AM 33.4757 127.4397 49° Northeast  Level Estimated
Fri 09:40:00 AM 33.5684 127.5687 49° Northeast  Level Estimated
Fri 09:41:00 AM 33.6609 127.6980 49° Northeast  Level Estimated
Fri 09:42:00 AM 33.7533 127.8276 49° Northeast  Level Estimated
Fri 09:43:00 AM 33.8456 127.9574 49° Northeast  Level Estimated
Fri 09:43:52 AM 32.7170 129.2270 50° Northeast 569 655 29,000  Level FlightAware ADS-B
Fri 09:44:00 AM 33.9377 128.0876 50° Northeast  Level Estimated
Fri 09:46:00 AM 32.9108 129.5040 50° Northeast  Level Estimated
Fri 09:47:00 AM 33.0014 129.6342 50° Northeast  Level Estimated
Fri 09:48:00 AM 33.0919 129.7648 50° Northeast  Level Estimated
Fri 09:49:00 AM 33.1823 129.8955 50° Northeast  Level Estimated
Fri 09:50:00 AM 33.2725 130.0266 51° Northeast  Level Estimated
Fri 09:51:00 AM 33.3626 130.1579 51° Northeast  Level Estimated
Fri 09:52:00 AM 33.4525 130.2895 51° Northeast  Level Estimated
Fri 09:53:00 AM 33.5423 130.4214 51° Northeast  Level Estimated
Fri 09:54:00 AM 33.6320 130.5535 51° Northeast  Level Estimated
Fri 09:55:00 AM 33.7215 130.6860 51° Northeast  Level Estimated
Fri 09:56:00 AM 33.8109 130.8187 51° Northeast  Level Estimated
Fri 09:57:00 AM 33.9001 130.9516 51° Northeast  Level Estimated
Fri 09:58:00 AM 33.9892 131.0849 51° Northeast  Level Estimated
Fri 09:59:00 AM 34.0782 131.2184 51° Northeast  Level Estimated
Fri 10:00:00 AM 34.1670 131.3522 51° Northeast  Level Estimated
Fri 10:01:00 AM 34.2556 131.4863 51° Northeast  Level Estimated
Fri 10:02:00 AM 34.3442 131.6207 51° Northeast  Level Estimated
Fri 10:02:37 AM 33.6120 132.6330 51° Northeast 584 672 29,000  Level FlightAware ADS-B
Fri 10:03:22 AM 33.6440 132.7740 75° East 585 673 29,000  Level FlightAware ADS-B
Fri 10:04:02 AM 33.6720 132.8990 75° East 585 673 29,000  Level FlightAware ADS-B
Fri 10:04:42 AM 33.7010 133.0240 74° East 587 676 29,000  Level FlightAware ADS-B
Fri 10:05:27 AM 33.7330 133.1630 74° East 589 678 29,000  Level FlightAware ADS-B
Fri 10:06:07 AM 33.7630 133.2930 74° East 588 677 29,000  Level FlightAware ADS-B
Fri 10:06:52 AM 33.7950 133.4340 75° East 591 680 29,000  Level FlightAware ADS-B
Fri 10:07:32 AM 33.8240 133.5620 75° East 591 680 29,000  Level FlightAware ADS-B
Fri 10:08:27 AM 33.8630 133.7360 75° East 594 684 29,000  Level FlightAware ADS-B
Fri 10:09:17 AM 33.9000 133.9010 75° East 592 681 29,000  Level FlightAware ADS-B
Fri 10:10:27 AM 33.9510 134.1280 75° East 596 686 29,000  Level FlightAware ADS-B
Fri 10:11:22 AM 33.9890 134.3030 75° East 596 686 29,000  Level FlightAware ADS-B
Fri 10:12:42 AM 34.0450 134.5610 75° East 593 682 29,000 150 Level FlightAware ADS-B
Fri 10:14:02 AM 34.0980 134.8080 75° East 585 673 29,400 369 Climbing FlightAware ADS-B
Fri 10:14:52 AM 34.1330 134.9690 75° East 591 680 29,800 424 Climbing FlightAware ADS-B
Fri 10:15:27 AM 34.1570 135.0860 76° East 591 680 30,000 450 Climbing FlightAware ADS-B
Fri 10:16:12 AM 34.1870 135.2260 75° East 587 676 30,400 565 Climbing FlightAware ADS-B
Fri 10:16:52 AM 34.2140 135.3570 76° East 594 684 30,800 327 Climbing FlightAware ADS-B
Fri 10:18:02 AM 34.2610 135.5810 76° East 590 679 31,000 109 Climbing FlightAware ADS-B
Fri 10:18:42 AM 34.2870 135.7080 76° East 592 681 31,000  Level FlightAware ADS-B
Fri 10:19:32 AM 34.3200 135.8650 76° East 594 684 31,000  Level FlightAware ADS-B
Fri 10:20:07 AM 34.3430 135.9790 76° East 594 684 31,000  Level FlightAware ADS-B
Fri 10:21:52 AM 34.4100 136.3140 76° East 596 686 31,000  Level FlightAware ADS-B
Fri 10:22:47 AM 34.4460 136.4930 76° East 596 686 31,000  Level FlightAware ADS-B
Fri 10:23:27 AM 34.4700 136.6130 76° East 593 682 31,000  Level FlightAware ADS-B
Fri 10:24:12 AM 34.5000 136.7640 76° East 594 684 31,000  Level FlightAware ADS-B
Fri 10:24:52 AM 34.5250 136.8970 77° East 595 685 31,000  Level FlightAware ADS-B
Fri 10:25:32 AM 34.5380 137.0300 83° East 596 686 31,000  Level FlightAware ADS-B
Fri 10:26:57 AM 34.5460 137.3090 88° East 601 692 31,000  Level FlightAware ADS-B
Fri 10:27:42 AM 34.5670 137.4600 80° East 599 689 31,000  Level FlightAware ADS-B
Fri 10:28:22 AM 34.5980 137.5930 74° East 599 689 31,000  Level FlightAware ADS-B
Fri 10:29:07 AM 34.6290 137.7310 75° East 599 689 31,000  Level FlightAware ADS-B
Fri 10:29:47 AM 34.6590 137.8680 75° East 604 695 31,000  Level FlightAware ADS-B
Fri 10:30:37 AM 34.6940 138.0230 75° East 603 694 31,000  Level FlightAware ADS-B
Fri 10:31:17 AM 34.7250 138.1590 74° East 604 695 31,000  Level FlightAware ADS-B
Fri 10:32:07 AM 34.7650 138.3320 74° East 607 699 31,000  Level FlightAware ADS-B
Fri 10:32:47 AM 34.7910 138.4480 75° East 605 696 31,000  Level FlightAware ADS-B
Fri 10:33:27 AM 34.8220 138.5840 74° East 605 696 31,000  Level FlightAware ADS-B
Fri 10:34:12 AM 34.8520 138.7220 75° East 602 693 31,000 71 Level FlightAware ADS-B
Fri 10:34:52 AM 34.8840 138.8630 74° East 597 687 31,100 300 Climbing FlightAware ADS-B
Fri 10:35:32 AM 34.9130 138.9940 75° East 596 686 31,400 494 Climbing FlightAware ADS-B
Fri 10:36:17 AM 34.9450 139.1430 75° East 600 690 31,800 400 Climbing FlightAware ADS-B
Fri 10:37:02 AM 34.9770 139.2880 75° East 597 687 32,000 141 Climbing FlightAware ADS-B
Fri 10:37:42 AM 35.0060 139.4210 75° East 596 686 32,000  Level FlightAware ADS-B
Fri 10:38:27 AM 35.0370 139.5650 75° East 597 687 32,000  Level FlightAware ADS-B
Fri 10:39:07 AM 35.0640 139.6940 76° East 596 686 32,000  Level FlightAware ADS-B
Fri 10:39:47 AM 35.0930 139.8270 75° East 594 684 32,000  Level FlightAware ADS-B
Fri 10:40:32 AM 35.1230 139.9710 76° East 593 682 32,000  Level FlightAware ADS-B
Fri 10:41:12 AM 35.1500 140.1010 76° East 592 681 32,000  Level FlightAware ADS-B
Fri 10:41:57 AM 35.1800 140.2440 76° East 592 681 32,000  Level FlightAware ADS-B
Fri 10:42:37 AM 35.2080 140.3770 76° East 591 680 32,000  Level FlightAware ADS-B
Fri 10:43:17 AM 35.2330 140.4970 76° East 591 680 32,000  Level FlightAware ADS-B
Fri 10:44:02 AM 35.2650 140.6560 76° East 589 678 32,000  Level FlightAware ADS-B
Fri 10:44:42 AM 35.2910 140.7830 76° East 591 680 32,000  Level FlightAware ADS-B
Fri 10:45:27 AM 35.3210 140.9280 76° East 592 681 32,000  Level FlightAware ADS-B
Fri 10:46:12 AM 35.3500 141.0760 76° East 594 684 32,000  Level FlightAware ADS-B
Fri 10:46:52 AM 35.3770 141.2070 76° East 595 685 32,000  Level FlightAware ADS-B
Fri 10:47:32 AM 35.4030 141.3420 77° East 593 682 32,000  Level FlightAware ADS-B
Fri 10:48:12 AM 35.4290 141.4710 76° East 593 682 32,000  Level FlightAware ADS-B
Fri 10:48:57 AM 35.4570 141.6160 77° East 593 682 32,000  Level FlightAware ADS-B
Fri 10:49:37 AM 35.4810 141.7390 76° East 592 681 32,000  Level FlightAware ADS-B
Fri 10:50:22 AM 35.5110 141.8950 77° East 592 681 32,000  Level FlightAware ADS-B
Fri 10:51:07 AM 35.5380 142.0330 76° East 593 682 32,000  Level FlightAware ADS-B
Fri 10:52:02 AM 35.5720 142.2120 77° East 593 682 32,000  Level FlightAware ADS-B
Fri 10:52:42 AM 35.5980 142.3510 77° East 593 682 32,000  Level FlightAware ADS-B
Fri 10:53:27 AM 35.6240 142.4890 77° East 594 684 32,000  Level FlightAware ADS-B
Fri 10:54:07 AM 35.6500 142.6260 77° East 594 684 32,000  Level FlightAware ADS-B
Fri 10:54:42 AM 35.6730 142.7470 77° East 594 684 32,000  Level FlightAware ADS-B
Fri 10:55:32 AM 35.7000 142.8950 77° East 592 681 32,000  Level FlightAware ADS-B
Fri 10:56:22 AM 35.7280 143.0480 77° East 592 681 32,000  Level FlightAware ADS-B
Fri 10:57:02 AM 35.7490 143.1600 77° East 592 681 32,000  Level FlightAware ADS-B
Fri 10:57:52 AM 35.7750 143.2990 77° East 592 681 32,000  Level FlightAware ADS-B
Fri 10:58:32 AM 35.7960 143.4110 77° East 592 681 32,000  Level FlightAware ADS-B
Fri 10:59:12 AM 35.8170 143.5230 77° East 592 681 32,000  Level FlightAware ADS-B
Fri 10:59:52 AM 35.8380 143.6350 77° East 592 681 32,000  Level FlightAware ADS-B
Fri 11:00:32 AM 35.8590 143.7470 77° East 592 681 32,000  Level FlightAware ADS-B
Fri 11:01:22 AM 35.8850 143.8870 77° East 592 681 32,000  Level FlightAware ADS-B
Fri 11:02:02 AM 35.9060 143.9990 77° East 592 681 32,000  Level FlightAware ADS-B
Fri 11:02:42 AM 35.9270 144.1110 77° East 592 681 32,000  Level FlightAware ADS-B
Fri 11:03:22 AM 35.9480 144.2230 77° East 592 681 32,000  Level FlightAware ADS-B
Fri 11:04:02 AM 35.9690 144.3350 77° East 592 681 32,000  Level FlightAware ADS-B
Fri 11:04:52 AM 35.9950 144.4750 77° East 592 681 32,000  Level FlightAware ADS-B
Fri 11:05:32 AM 36.0160 144.5870 77° East 592 681 32,000 30 Level FlightAware ADS-B
Fri 11:08:00 AM 36.1999 144.9552 58° Northeast  Level Estimated
Fri 11:09:00 AM 36.2741 145.1049 58° Northeast  Level Estimated
Fri 11:10:00 AM 36.3481 145.2550 58° Northeast  Level Estimated
Fri 11:11:00 AM 36.4220 145.4053 59° Northeast  Level Estimated
Fri 11:12:00 AM 36.4956 145.5559 59° Northeast  Level Estimated
Fri 11:13:00 AM 36.5691 145.7068 59° Northeast  Level Estimated
Fri 11:14:00 AM 36.6423 145.8580 59° Northeast  Level Estimated
Fri 11:15:00 AM 36.7154 146.0094 59° Northeast  Level Estimated
Fri 11:16:00 AM 36.7883 146.1612 59° Northeast  Level Estimated
Fri 11:17:00 AM 36.8610 146.3133 59° Northeast  Level Estimated
Fri 11:18:00 AM 36.9335 146.4656 59° Northeast  Level Estimated
Fri 11:19:00 AM 37.0058 146.6182 59° Northeast  Level Estimated
Fri 11:20:00 AM 37.0779 146.7711 59° Northeast  Level Estimated
Fri 11:21:00 AM 37.1498 146.9244 59° Northeast  Level Estimated
Fri 11:22:00 AM 37.2216 147.0779 60° Northeast  Level Estimated
Fri 11:23:00 AM 37.2931 147.2316 60° Northeast  Level Estimated
Fri 11:24:00 AM 37.3644 147.3857 60° Northeast  Level Estimated
Fri 11:25:00 AM 37.4355 147.5401 60° Northeast  Level Estimated
Fri 11:26:00 AM 37.5064 147.6948 60° Northeast  Level Estimated
Fri 11:27:00 AM 37.5772 147.8497 60° Northeast  Level Estimated
Fri 11:28:00 AM 37.6477 148.0050 60° Northeast  Level Estimated
Fri 11:29:00 AM 37.7180 148.1605 60° Northeast  Level Estimated
Fri 11:30:00 AM 37.7881 148.3164 60° Northeast  Level Estimated
Fri 11:31:00 AM 37.8580 148.4725 60° Northeast  Level Estimated
Fri 11:32:00 AM 37.9278 148.6292 61° Northeast  Level Estimated
Fri 11:33:00 AM 37.9974 148.7862 61° Northeast  Level Estimated
Fri 11:34:00 AM 38.0668 148.9434 61° Northeast  Level Estimated
Fri 11:35:00 AM 38.1359 149.1010 61° Northeast  Level Estimated
Fri 11:36:00 AM 38.2049 149.2589 61° Northeast  Level Estimated
Fri 11:37:00 AM 38.2736 149.4170 61° Northeast  Level Estimated
Fri 11:38:00 AM 38.3422 149.5755 61° Northeast  Level Estimated
Fri 11:39:00 AM 38.4105 149.7342 61° Northeast  Level Estimated
Fri 11:40:00 AM 38.4786 149.8933 61° Northeast  Level Estimated
Fri 11:41:00 AM 38.5465 150.0527 61° Northeast  Level Estimated
Fri 11:42:00 AM 38.6142 150.2123 61° Northeast  Level Estimated
Fri 11:43:00 AM 38.6816 150.3723 62° Northeast  Level Estimated
Fri 11:44:00 AM 38.7489 150.5325 62° Northeast  Level Estimated
Fri 11:45:00 AM 38.8159 150.6931 62° Northeast  Level Estimated
Fri 11:46:00 AM 38.8827 150.8540 62° Northeast  Level Estimated
Fri 11:47:00 AM 38.9493 151.0152 62° Northeast  Level Estimated
Fri 11:48:00 AM 39.0156 151.1766 62° Northeast  Level Estimated
Fri 11:49:00 AM 39.0817 151.3384 62° Northeast  Level Estimated
Fri 11:50:00 AM 39.1477 151.5005 62° Northeast  Level Estimated
Fri 11:51:00 AM 39.2133 151.6629 62° Northeast  Level Estimated
Fri 11:52:00 AM 39.2788 151.8255 62° Northeast  Level Estimated
Fri 11:53:00 AM 39.3440 151.9885 63° Northeast  Level Estimated
Fri 11:54:00 AM 39.4090 152.1518 63° Northeast  Level Estimated
Fri 11:55:00 AM 39.4738 152.3154 63° Northeast  Level Estimated
Fri 11:56:00 AM 39.5384 152.4793 63° Northeast  Level Estimated
Fri 11:57:00 AM 39.6027 152.6435 63° Northeast  Level Estimated
Fri 11:58:00 AM 39.6668 152.8080 63° Northeast  Level Estimated
Fri 11:59:00 AM 39.7306 152.9729 63° Northeast  Level Estimated
Fri 12:00:00 PM 39.7942 153.1380 63° Northeast  Level Estimated
Fri 12:01:00 PM 39.8576 153.3034 63° Northeast  Level Estimated
Fri 12:02:00 PM 39.9207 153.4691 64° Northeast  Level Estimated
Fri 12:03:00 PM 39.9837 153.6352 64° Northeast  Level Estimated
Fri 12:04:00 PM 40.0463 153.8015 64° Northeast  Level Estimated
Fri 12:05:00 PM 40.1088 153.9682 64° Northeast  Level Estimated
Fri 12:06:00 PM 40.1710 154.1351 64° Northeast  Level Estimated
Fri 12:07:00 PM 40.2329 154.3024 64° Northeast  Level Estimated
Fri 12:08:00 PM 40.2946 154.4700 64° Northeast  Level Estimated
Fri 12:09:00 PM 40.3561 154.6378 64° Northeast  Level Estimated
Fri 12:10:00 PM 40.4173 154.8060 64° Northeast  Level Estimated
Fri 12:11:00 PM 40.4783 154.9745 65° Northeast  Level Estimated
Fri 12:12:00 PM 40.5391 155.1433 65° Northeast  Level Estimated
Fri 12:13:00 PM 40.5996 155.3124 65° Northeast  Level Estimated
Fri 12:14:00 PM 40.6598 155.4818 65° Northeast  Level Estimated
Fri 12:15:00 PM 40.7198 155.6515 65° Northeast  Level Estimated
Fri 12:16:00 PM 40.7796 155.8215 65° Northeast  Level Estimated
Fri 12:17:00 PM 40.8391 155.9918 65° Northeast  Level Estimated
Fri 12:18:00 PM 40.8983 156.1624 65° Northeast  Level Estimated
Fri 12:19:00 PM 40.9573 156.3334 65° Northeast  Level Estimated
Fri 12:20:00 PM 41.0160 156.5046 66° East  Level Estimated
Fri 12:21:00 PM 41.0745 156.6761 66° East  Level Estimated
Fri 12:22:00 PM 41.1328 156.8480 66° East  Level Estimated
Fri 12:23:00 PM 41.1908 157.0201 66° East  Level Estimated
Fri 12:24:00 PM 41.2485 157.1926 66° East  Level Estimated
Fri 12:25:00 PM 41.3060 157.3653 66° East  Level Estimated
Fri 12:26:00 PM 41.3632 157.5384 66° East  Level Estimated
Fri 12:27:00 PM 41.4201 157.7117 66° East  Level Estimated
Fri 12:28:00 PM 41.4768 157.8854 66° East  Level Estimated
Fri 12:29:00 PM 41.5332 158.0594 67° East  Level Estimated
Fri 12:30:00 PM 41.5894 158.2337 67° East  Level Estimated
Fri 12:31:00 PM 41.6453 158.4082 67° East  Level Estimated
Fri 12:32:00 PM 41.7009 158.5831 67° East  Level Estimated
Fri 12:33:00 PM 41.7563 158.7583 67° East  Level Estimated
Fri 12:34:00 PM 41.8114 158.9338 67° East  Level Estimated
Fri 12:35:00 PM 41.8662 159.1096 67° East  Level Estimated
Fri 12:36:00 PM 41.9208 159.2856 67° East  Level Estimated
Fri 12:37:00 PM 41.9751 159.4620 67° East  Level Estimated
Fri 12:38:00 PM 42.0291 159.6387 68° East  Level Estimated
Fri 12:39:00 PM 42.0829 159.8157 68° East  Level Estimated
Fri 12:40:00 PM 42.1363 159.9930 68° East  Level Estimated
Fri 12:41:00 PM 42.1895 160.1706 68° East  Level Estimated
Fri 12:42:00 PM 42.2425 160.3485 68° East  Level Estimated
Fri 12:43:00 PM 42.2951 160.5267 68° East  Level Estimated
Fri 12:44:00 PM 42.3475 160.7051 68° East  Level Estimated
Fri 12:44:06 PM 37.1000 164.9333 90° East 576 663 35,000  Level Oakland Oceanic (ODAPS)
Fri 12:45:00 PM 42.3996 160.8839 68° East  Level Estimated
Fri 12:46:00 PM 42.4515 161.0630 69° East  Level Estimated
Fri 12:47:00 PM 42.5030 161.2423 69° East  Level Estimated
Fri 12:48:00 PM 42.5543 161.4220 69° East  Level Estimated
Fri 12:49:00 PM 42.6053 161.6020 69° East  Level Estimated
Fri 12:50:00 PM 37.0957 166.1503 91° East 576 663 35,000  Level FlightAware Transoceanic
Fri 12:51:00 PM 37.0937 166.3531 91° East 576 663 35,000  Level FlightAware Transoceanic
Fri 12:52:00 PM 37.0915 166.5559 91° East 576 663 35,000  Level FlightAware Transoceanic
Fri 12:53:00 PM 37.0888 166.7587 91° East 576 663 35,000  Level FlightAware Transoceanic
Fri 12:54:00 PM 37.0859 166.9615 91° East 576 663 35,000  Level FlightAware Transoceanic
Fri 12:55:00 PM 37.0826 167.1642 91° East 576 663 35,000  Level FlightAware Transoceanic
Fri 12:56:00 PM 37.0789 167.3670 91° East 576 663 35,000  Level FlightAware Transoceanic
Fri 12:57:00 PM 37.0749 167.5697 91° East 576 663 35,000  Level FlightAware Transoceanic
Fri 12:57:59 PM 37.0667 167.7000 91° East 586 674 35,000  Level Oakland Oceanic (ODAPS)
Fri 12:58:00 PM 37.0705 167.7724 92° East 576 663 35,000  Level FlightAware Transoceanic
Fri 12:59:00 PM 37.0659 167.9751 92° East 576 663 35,000  Level FlightAware Transoceanic
Fri 01:00:00 PM 37.0608 168.1777 92° East 576 663 35,000  Level FlightAware Transoceanic
Fri 01:01:00 PM 37.0554 168.3803 92° East 576 663 35,000  Level FlightAware Transoceanic
Fri 01:02:00 PM 37.0497 168.5829 92° East 576 663 35,000  Level FlightAware Transoceanic
Fri 01:03:00 PM 37.0437 168.7854 92° East 576 663 35,000  Level FlightAware Transoceanic
Fri 01:04:00 PM 37.0358 168.9550 92° East 586 674 35,000  Level FlightAware Transoceanic
Fri 01:05:00 PM 37.0294 169.1641 92° East 586 674 35,000  Level FlightAware Transoceanic
Fri 01:06:00 PM 37.0226 169.3732 92° East 586 674 35,000  Level FlightAware Transoceanic
Fri 01:07:00 PM 37.0154 169.5821 93° East 586 674 35,000  Level FlightAware Transoceanic
Fri 01:08:00 PM 37.0079 169.7911 93° East 586 674 35,000  Level FlightAware Transoceanic
Fri 01:09:00 PM 37.0000 170.0000 87° East 586 674 35,000  Level FlightAware Transoceanic
Fri 01:09:59 PM 37.0000 170.0000 87° East 570 656 35,000  Level Oakland Oceanic (ODAPS)
Fri 01:10:00 PM 37.0081 170.1957 87° East 586 674 35,000  Level FlightAware Transoceanic
Fri 01:11:00 PM 37.0158 170.3915 87° East 586 674 35,000  Level FlightAware Transoceanic
Fri 01:11:50 PM 37.0167 170.5000 87° East 570 656 35,000  Level Oakland Oceanic (ODAPS)
Fri 01:12:00 PM 37.0232 170.5873 87° East 586 674 35,000  Level FlightAware Transoceanic
Fri 01:13:00 PM 37.0303 170.7832 87° East 586 674 35,000  Level FlightAware Transoceanic
Fri 01:14:00 PM 37.0371 170.9791 88° East 586 674 35,000  Level FlightAware Transoceanic
Fri 01:15:00 PM 37.0436 171.1750 88° East 586 674 35,000  Level FlightAware Transoceanic
Fri 01:16:00 PM 37.0497 171.3710 88° East 570 656 35,000  Level FlightAware Transoceanic
Fri 01:17:00 PM 37.0555 171.5670 88° East 570 656 35,000  Level FlightAware Transoceanic
Fri 01:18:00 PM 37.0560 171.6864 88° East 570 656 35,000  Level FlightAware Transoceanic
Fri 01:19:00 PM 37.0615 171.8843 88° East 570 656 35,000  Level FlightAware Transoceanic
Fri 01:20:00 PM 37.0665 172.0822 88° East 570 656 35,000  Level FlightAware Transoceanic
Fri 01:21:00 PM 37.0713 172.2801 88° East 570 656 35,000  Level FlightAware Transoceanic
Fri 01:22:00 PM 37.0757 172.4780 88° East 570 656 35,000  Level FlightAware Transoceanic
Fri 01:23:00 PM 37.0798 172.6759 89° East 570 656 35,000  Level FlightAware Transoceanic
Fri 01:24:00 PM 37.0836 172.8739 89° East 570 656 35,000  Level FlightAware Transoceanic
Fri 01:25:00 PM 37.0870 173.0719 89° East 570 656 35,000  Level FlightAware Transoceanic
Fri 01:25:43 PM 37.1000 173.3333 89° East 576 663 35,000  Level Oakland Oceanic (ODAPS)
Fri 01:26:00 PM 37.0901 173.2699 89° East 570 656 35,000  Level FlightAware Transoceanic
Fri 01:27:00 PM 37.0929 173.4679 89° East 570 656 35,000  Level FlightAware Transoceanic
Fri 01:28:00 PM 37.0954 173.6660 89° East 570 656 35,000  Level FlightAware Transoceanic
Fri 01:29:00 PM 37.0975 173.8640 89° East 570 656 35,000  Level FlightAware Transoceanic
Fri 01:30:00 PM 37.0993 174.0621 89° East 570 656 35,000  Level FlightAware Transoceanic
Fri 01:31:00 PM 37.1095 174.5106 90° East 576 663 35,000  Level FlightAware Transoceanic
Fri 01:32:00 PM 37.1099 174.7068 90° East 576 663 35,000  Level FlightAware Transoceanic
Fri 01:33:00 PM 37.1101 174.9030 90° East 576 663 35,000  Level FlightAware Transoceanic
Fri 01:34:00 PM 37.1099 175.0992 90° East 576 663 35,000  Level FlightAware Transoceanic
Fri 01:35:00 PM 37.1093 175.2955 90° East 576 663 35,000  Level FlightAware Transoceanic
Fri 01:36:00 PM 37.1085 175.4917 90° East 576 663 35,000  Level FlightAware Transoceanic
Fri 01:37:00 PM 37.1073 175.6879 90° East 576 663 35,000  Level FlightAware Transoceanic
Fri 01:38:00 PM 37.1059 175.8841 91° East 576 663 35,000  Level FlightAware Transoceanic
Fri 01:39:00 PM 37.1040 176.0803 91° East 576 663 35,000  Level FlightAware Transoceanic
Fri 01:39:36 PM 37.1000 176.0833 91° East 565 650 35,000  Level Oakland Oceanic (ODAPS)
Fri 01:40:00 PM 37.1019 176.2765 91° East 576 663 35,000  Level FlightAware Transoceanic
Fri 01:41:00 PM 37.0994 176.4727 91° East 576 663 35,000  Level FlightAware Transoceanic
Fri 01:42:00 PM 37.0967 176.6689 91° East 576 663 35,000  Level FlightAware Transoceanic
Fri 01:43:00 PM 37.0936 176.8650 91° East 576 663 35,000  Level FlightAware Transoceanic
Fri 01:44:00 PM 37.0901 177.0612 91° East 576 663 35,000  Level FlightAware Transoceanic
Fri 01:45:00 PM 37.0835 177.2593 91° East 565 650 35,000  Level FlightAware Transoceanic
Fri 01:46:00 PM 37.0797 177.4553 91° East 565 650 35,000  Level FlightAware Transoceanic
Fri 01:47:00 PM 37.0755 177.6512 92° East 565 650 35,000  Level FlightAware Transoceanic
Fri 01:48:00 PM 37.0709 177.8471 92° East 565 650 35,000  Level FlightAware Transoceanic
Fri 01:49:00 PM 37.0661 178.0430 92° East 565 650 35,000  Level FlightAware Transoceanic
Fri 01:50:00 PM 37.0609 178.2388 92° East 565 650 35,000  Level FlightAware Transoceanic
Fri 01:51:00 PM 37.0555 178.4346 92° East 565 650 35,000  Level FlightAware Transoceanic
Fri 01:52:00 PM 37.0496 178.6304 92° East 565 650 35,000  Level FlightAware Transoceanic
Fri 01:53:00 PM 37.0435 178.8262 92° East 565 650 35,000  Level FlightAware Transoceanic
Fri 01:53:27 PM 37.0500 178.7667 93° East 556 640 35,000  Level Oakland Oceanic (ODAPS)
Fri 01:54:00 PM 37.0371 179.0219 92° East 565 650 35,000  Level FlightAware Transoceanic
Fri 01:55:00 PM 37.0303 179.2176 93° East 565 650 35,000  Level FlightAware Transoceanic
Fri 01:56:00 PM 37.0232 179.4133 93° East 565 650 35,000  Level FlightAware Transoceanic
Fri 01:57:00 PM 37.0158 179.6089 93° East 565 650 35,000  Level FlightAware Transoceanic
Fri 01:58:00 PM 37.0081 179.8045 93° East 565 650 35,000  Level FlightAware Transoceanic
Fri 01:59:00 PM 37.0079 179.8239 93° East 556 640 35,000  Level FlightAware Transoceanic
Fri 02:00:00 PM 37.0000 -180.0000 87° East 556 640 35,000  Level FlightAware Transoceanic
Fri 02:00:10 PM 37.0000 180.0000 87° East 556 640 35,000  Level Oakland Oceanic (ODAPS)
Fri 02:01:00 PM 37.0079 -179.8080 87° East 556 640 35,000  Level FlightAware Transoceanic
Fri 02:02:00 PM 37.0155 -179.6160 87° East 556 640 35,000  Level FlightAware Transoceanic
Fri 02:03:00 PM 37.0228 -179.4240 87° East 556 640 35,000  Level FlightAware Transoceanic
Fri 02:04:00 PM 37.0298 -179.2319 87° East 556 640 35,000  Level FlightAware Transoceanic
Fri 02:05:00 PM 37.0365 -179.0398 88° East 556 640 35,000  Level FlightAware Transoceanic
Fri 02:06:00 PM 37.0429 -178.8476 88° East 556 640 35,000  Level FlightAware Transoceanic
Fri 02:07:00 PM 37.0489 -178.6554 88° East 556 640 35,000  Level FlightAware Transoceanic
Fri 02:07:20 PM 37.0500 -178.5833 88° East 555 639 35,000  Level Oakland Oceanic (ODAPS)
Fri 02:08:00 PM 37.0547 -178.4632 88° East 556 640 35,000  Level FlightAware Transoceanic
Fri 02:09:00 PM 37.0601 -178.2710 88° East 556 640 35,000  Level FlightAware Transoceanic
Fri 02:10:00 PM 37.0652 -178.0787 88° East 556 640 35,000  Level FlightAware Transoceanic
Fri 02:11:00 PM 37.0701 -177.8864 88° East 556 640 35,000  Level FlightAware Transoceanic
Fri 02:12:00 PM 37.0746 -177.6941 88° East 556 640 35,000  Level FlightAware Transoceanic
Fri 02:13:00 PM 37.0791 -177.4392 89° East 555 639 35,000  Level FlightAware Transoceanic
Fri 02:14:00 PM 37.0829 -177.2485 89° East 555 639 35,000  Level FlightAware Transoceanic
Fri 02:15:00 PM 37.0863 -177.0577 89° East 555 639 35,000  Level FlightAware Transoceanic
Fri 02:16:00 PM 37.0895 -176.8669 89° East 555 639 35,000  Level FlightAware Transoceanic
Fri 02:17:00 PM 37.0924 -176.6761 89° East 555 639 35,000  Level FlightAware Transoceanic
Fri 02:18:00 PM 37.0949 -176.4852 89° East 555 639 35,000  Level FlightAware Transoceanic
Fri 02:19:00 PM 37.0972 -176.2944 89° East 555 639 35,000  Level FlightAware Transoceanic
Fri 02:20:00 PM 37.0991 -176.1035 89° East 555 639 35,000  Level FlightAware Transoceanic
Fri 02:21:00 PM 37.1008 -175.9127 89° East 555 639 35,000  Level FlightAware Transoceanic
Fri 02:21:12 PM 37.1000 -175.9500 89° East 551 634 35,000  Level Oakland Oceanic (ODAPS)
Fri 02:22:00 PM 37.1021 -175.7218 90° East 555 639 35,000  Level FlightAware Transoceanic
Fri 02:23:00 PM 37.1031 -175.5310 90° East 555 639 35,000  Level FlightAware Transoceanic
Fri 02:24:00 PM 37.1039 -175.3401 90° East 555 639 35,000  Level FlightAware Transoceanic
Fri 02:25:00 PM 37.1043 -175.1492 90° East 555 639 35,000  Level FlightAware Transoceanic
Fri 02:26:00 PM 37.1044 -174.9583 90° East 555 639 35,000  Level FlightAware Transoceanic
Fri 02:27:00 PM 37.1039 -174.7975 90° East 551 634 35,000  Level FlightAware Transoceanic
Fri 02:28:00 PM 37.1034 -174.6055 90° East 551 634 35,000  Level FlightAware Transoceanic
Fri 02:29:00 PM 37.1027 -174.4134 90° East 551 634 35,000  Level FlightAware Transoceanic
Fri 02:30:00 PM 37.1016 -174.2213 90° East 551 634 35,000  Level FlightAware Transoceanic
Fri 02:31:00 PM 37.1002 -174.0292 91° East 551 634 35,000  Level FlightAware Transoceanic
Fri 02:32:00 PM 37.0986 -173.8372 91° East 551 634 35,000  Level FlightAware Transoceanic
Fri 02:33:00 PM 37.0966 -173.6451 91° East 551 634 35,000  Level FlightAware Transoceanic
Fri 02:34:00 PM 37.0943 -173.4531 91° East 551 634 35,000  Level FlightAware Transoceanic
Fri 02:35:00 PM 37.0917 -173.2610 91° East 551 634 35,000  Level FlightAware Transoceanic
Fri 02:35:04 PM 37.1000 -173.3333 91° East 550 633 35,000  Level Oakland Oceanic (ODAPS)
Fri 02:36:00 PM 37.0887 -173.0690 91° East 551 634 35,000  Level FlightAware Transoceanic
Fri 02:37:00 PM 37.0855 -172.8770 91° East 551 634 35,000  Level FlightAware Transoceanic
Fri 02:38:00 PM 37.0820 -172.6851 91° East 551 634 35,000  Level FlightAware Transoceanic
Fri 02:39:00 PM 37.0781 -172.4931 91° East 551 634 35,000  Level FlightAware Transoceanic
Fri 02:40:00 PM 37.0740 -172.3012 92° East 551 634 35,000  Level FlightAware Transoceanic
Fri 02:41:00 PM 37.0754 -172.1559 92° East 550 633 35,000  Level FlightAware Transoceanic
Fri 02:42:00 PM 37.0701 -171.9597 92° East 550 633 35,000  Level FlightAware Transoceanic
Fri 02:43:00 PM 37.0646 -171.7636 92° East 550 633 35,000  Level FlightAware Transoceanic
Fri 02:44:00 PM 37.0587 -171.5675 92° East 550 633 35,000  Level FlightAware Transoceanic
Fri 02:45:00 PM 37.0525 -171.3715 92° East 550 633 35,000  Level FlightAware Transoceanic
Fri 02:46:00 PM 37.0459 -171.1754 92° East 550 633 35,000  Level FlightAware Transoceanic
Fri 02:47:00 PM 37.0391 -170.9794 93° East 550 633 35,000  Level FlightAware Transoceanic
Fri 02:48:00 PM 37.0319 -170.7835 93° East 550 633 35,000  Level FlightAware Transoceanic
Fri 02:48:56 PM 37.0333 -170.6667 93° East 551 634 35,000  Level Oakland Oceanic (ODAPS)
Fri 02:49:00 PM 37.0244 -170.5875 93° East 550 633 35,000  Level FlightAware Transoceanic
Fri 02:50:00 PM 37.0166 -170.3916 93° East 550 633 35,000  Level FlightAware Transoceanic
Fri 02:51:00 PM 37.0085 -170.1958 93° East 550 633 35,000  Level FlightAware Transoceanic
Fri 02:52:00 PM 37.0000 -170.0000 73° East 550 633 35,000  Level FlightAware Transoceanic
Fri 02:52:42 PM 37.0000 -170.0000 73° East 553 636 35,000  Level Oakland Oceanic (ODAPS)
Fri 02:53:00 PM 37.0463 -169.8131 73° East 550 633 35,000  Level FlightAware Transoceanic
Fri 02:54:00 PM 37.0923 -169.6259 73° East 550 633 35,000  Level FlightAware Transoceanic
Fri 02:55:00 PM 37.1380 -169.4386 73° East 551 634 35,000  Level FlightAware Transoceanic
Fri 02:56:00 PM 37.1834 -169.2509 73° East 551 634 35,000  Level FlightAware Transoceanic
Fri 02:57:00 PM 37.2285 -169.0631 73° East 551 634 35,000  Level FlightAware Transoceanic
Fri 02:58:00 PM 37.2733 -168.8751 73° East 551 634 35,000  Level FlightAware Transoceanic
Fri 02:59:00 PM 37.3120 -168.7117 73° East 553 636 35,000  Level FlightAware Transoceanic
Fri 03:00:00 PM 37.3554 -168.5267 74° East 553 636 35,000  Level FlightAware Transoceanic
Fri 03:01:00 PM 37.3985 -168.3416 74° East 553 636 35,000  Level FlightAware Transoceanic
Fri 03:02:00 PM 37.4414 -168.1563 74° East 553 636 35,000  Level FlightAware Transoceanic
Fri 03:02:49 PM 37.4667 -168.0500 74° East 557 641 35,000  Level Oakland Oceanic (ODAPS)
Fri 03:03:00 PM 37.4840 -167.9707 74° East 553 636 35,000  Level FlightAware Transoceanic
Fri 03:04:00 PM 37.5262 -167.7850 74° East 553 636 35,000  Level FlightAware Transoceanic
Fri 03:05:00 PM 37.5682 -167.5990 74° East 553 636 35,000  Level FlightAware Transoceanic
Fri 03:06:00 PM 37.6099 -167.4128 74° East 553 636 35,000  Level FlightAware Transoceanic
Fri 03:07:00 PM 37.6513 -167.2265 74° East 553 636 35,000  Level FlightAware Transoceanic
Fri 03:08:00 PM 37.6924 -167.0399 75° East 553 636 35,000  Level FlightAware Transoceanic
Fri 03:09:00 PM 37.7190 -166.9214 75° East 557 641 35,000  Level FlightAware Transoceanic
Fri 03:10:00 PM 37.7600 -166.7326 75° East 557 641 35,000  Level FlightAware Transoceanic
Fri 03:11:00 PM 37.8007 -166.5436 75° East 557 641 35,000  Level FlightAware Transoceanic
Fri 03:12:00 PM 37.8411 -166.3543 75° East 557 641 35,000  Level FlightAware Transoceanic
Fri 03:13:00 PM 37.8812 -166.1649 75° East 557 641 35,000  Level FlightAware Transoceanic
Fri 03:14:00 PM 37.9210 -165.9752 75° East 557 641 35,000  Level FlightAware Transoceanic
Fri 03:15:00 PM 37.9605 -165.7853 75° East 557 641 35,000  Level FlightAware Transoceanic
Fri 03:16:00 PM 37.9997 -165.5953 75° East 557 641 35,000  Level FlightAware Transoceanic
Fri 03:16:41 PM 38.0500 -165.3833 76° East 555 639 35,000  Level Oakland Oceanic (ODAPS)
Fri 03:17:00 PM 38.0386 -165.4050 76° East 557 641 35,000  Level FlightAware Transoceanic
Fri 03:18:00 PM 38.0772 -165.2145 76° East 557 641 35,000  Level FlightAware Transoceanic
Fri 03:19:00 PM 38.1154 -165.0238 76° East 557 641 35,000  Level FlightAware Transoceanic
Fri 03:20:00 PM 38.1534 -164.8330 76° East 557 641 35,000  Level FlightAware Transoceanic
Fri 03:21:00 PM 38.1910 -164.6419 76° East 557 641 35,000  Level FlightAware Transoceanic
Fri 03:22:00 PM 38.2284 -164.4506 76° East 557 641 35,000  Level FlightAware Transoceanic
Fri 03:23:00 PM 38.3105 -164.0511 76° East 555 639 35,000  Level FlightAware Transoceanic
Fri 03:24:00 PM 38.3465 -163.8600 77° East 555 639 35,000  Level FlightAware Transoceanic
Fri 03:25:00 PM 38.3821 -163.6687 77° East 555 639 35,000  Level FlightAware Transoceanic
Fri 03:26:00 PM 38.4175 -163.4772 77° East 555 639 35,000  Level FlightAware Transoceanic
Fri 03:27:00 PM 38.4526 -163.2855 77° East 555 639 35,000  Level FlightAware Transoceanic
Fri 03:28:00 PM 38.4873 -163.0937 77° East 555 639 35,000  Level FlightAware Transoceanic
Fri 03:29:00 PM 38.5217 -162.9017 77° East 555 639 35,000  Level FlightAware Transoceanic
Fri 03:30:00 PM 38.5558 -162.7095 77° East 555 639 35,000  Level FlightAware Transoceanic
Fri 03:30:33 PM 38.5500 -162.7333 77° East 553 636 35,000  Level Oakland Oceanic (ODAPS)
Fri 03:31:00 PM 38.5896 -162.5170 77° East 555 639 35,000  Level FlightAware Transoceanic
Fri 03:32:00 PM 38.6231 -162.3245 78° East 555 639 35,000  Level FlightAware Transoceanic
Fri 03:33:00 PM 38.6563 -162.1317 78° East 555 639 35,000  Level FlightAware Transoceanic
Fri 03:34:00 PM 38.6891 -161.9388 78° East 555 639 35,000  Level FlightAware Transoceanic
Fri 03:35:00 PM 38.7216 -161.7457 78° East 555 639 35,000  Level FlightAware Transoceanic
Fri 03:36:00 PM 38.7506 -161.5661 78° East 553 636 35,000  Level FlightAware Transoceanic
Fri 03:37:00 PM 38.7830 -161.3710 78° East 553 636 35,000  Level FlightAware Transoceanic
Fri 03:38:00 PM 38.8149 -161.1756 78° East 553 636 35,000  Level FlightAware Transoceanic
Fri 03:39:00 PM 38.8466 -160.9801 78° East 553 636 35,000  Level FlightAware Transoceanic
Fri 03:40:00 PM 38.8779 -160.7844 78° East 553 636 35,000  Level FlightAware Transoceanic
Fri 03:41:00 PM 38.9090 -160.5886 79° East 553 636 35,000  Level FlightAware Transoceanic
Fri 03:42:00 PM 38.9396 -160.3926 79° East 553 636 35,000  Level FlightAware Transoceanic
Fri 03:43:00 PM 38.9700 -160.1964 79° East 553 636 35,000  Level FlightAware Transoceanic
Fri 03:44:00 PM 39.0000 -160.0000 79° East 553 636 35,000 698 Level FlightAware Transoceanic
Fri 03:44:26 PM 38.9833 -160.1000 78° East 529 609 36,000  Climbing Oakland Oceanic (ODAPS)
Fri 03:45:00 PM 39.0267 -159.8143 80° East 553 636 35,000  Descending FlightAware Transoceanic
Fri 03:45:10 PM 39.0000 -160.0000 79° East 530 610 36,000  Climbing Oakland Oceanic (ODAPS)
Fri 03:46:00 PM 39.0532 -159.6285 80° East 553 636 35,000 -545 Descending FlightAware Transoceanic
Fri 03:47:00 PM 39.0793 -159.4425 80° East 553 636 35,000  Level FlightAware Transoceanic
Fri 03:48:00 PM 39.1051 -159.2564 80° East 553 636 35,000  Level FlightAware Transoceanic
Fri 03:49:00 PM 39.1306 -159.0702 80° East 553 636 35,000 500 Level FlightAware Transoceanic
Fri 03:50:00 PM 39.1331 -159.0523 80° East 529 609 36,000 500 Climbing FlightAware Transoceanic
Fri 03:51:00 PM 39.1559 -158.8839 80° East 530 610 36,000  Level FlightAware Transoceanic
Fri 03:52:00 PM 39.1808 -158.6974 80° East 530 610 36,000  Level FlightAware Transoceanic
Fri 03:53:00 PM 39.2055 -158.5107 80° East 530 610 36,000  Level FlightAware Transoceanic
Fri 03:54:00 PM 39.2298 -158.3240 81° East 530 610 36,000  Level FlightAware Transoceanic
Fri 03:55:00 PM 39.2539 -158.1371 81° East 530 610 36,000  Level FlightAware Transoceanic
Fri 03:56:00 PM 39.2776 -157.9500 81° East 530 610 36,000  Level FlightAware Transoceanic
Fri 03:57:00 PM 39.3011 -157.7629 81° East 530 610 36,000  Level FlightAware Transoceanic
Fri 03:58:00 PM 39.3242 -157.5756 81° East 530 610 36,000  Level FlightAware Transoceanic
Fri 03:58:18 PM 39.3333 -157.4500 81° East 524 603 36,000  Level Oakland Oceanic (ODAPS)
Fri 03:59:00 PM 39.3471 -157.3882 81° East 530 610 36,000  Level FlightAware Transoceanic
Fri 04:00:00 PM 39.3697 -157.2007 81° East 530 610 36,000  Level FlightAware Transoceanic
Fri 04:01:00 PM 39.3919 -157.0131 81° East 530 610 36,000  Level FlightAware Transoceanic
Fri 04:02:00 PM 39.4138 -156.8253 81° East 530 610 36,000  Level FlightAware Transoceanic
Fri 04:03:00 PM 39.4355 -156.6375 82° East 530 610 36,000  Level FlightAware Transoceanic
Fri 04:04:00 PM 39.4635 -156.3424 82° East 524 603 36,000  Level FlightAware Transoceanic
Fri 04:05:00 PM 39.4842 -156.1574 82° East 524 603 36,000  Level FlightAware Transoceanic
Fri 04:06:00 PM 39.5046 -155.9723 82° East 524 603 36,000  Level FlightAware Transoceanic
Fri 04:07:00 PM 39.5247 -155.7871 82° East 524 603 36,000  Level FlightAware Transoceanic
Fri 04:08:00 PM 39.5445 -155.6017 82° East 524 603 36,000  Level FlightAware Transoceanic
Fri 04:09:00 PM 39.5640 -155.4163 82° East 524 603 36,000  Level FlightAware Transoceanic
Fri 04:10:00 PM 39.5832 -155.2308 82° East 524 603 36,000  Level FlightAware Transoceanic
Fri 04:11:00 PM 39.6021 -155.0452 83° East 524 603 36,000  Level FlightAware Transoceanic
Fri 04:12:00 PM 39.6207 -154.8594 83° East 524 603 36,000  Level FlightAware Transoceanic
Fri 04:12:10 PM 39.6167 -154.8667 83° East 523 602 36,000  Level Oakland Oceanic (ODAPS)
Fri 04:13:00 PM 39.6391 -154.6736 83° East 524 603 36,000  Level FlightAware Transoceanic
Fri 04:14:00 PM 39.6571 -154.4877 83° East 524 603 36,000  Level FlightAware Transoceanic
Fri 04:15:00 PM 39.6748 -154.3016 83° East 524 603 36,000  Level FlightAware Transoceanic
Fri 04:16:00 PM 39.6922 -154.1155 83° East 524 603 36,000  Level FlightAware Transoceanic
Fri 04:17:00 PM 39.7094 -153.9293 83° East 524 603 36,000  Level FlightAware Transoceanic
Fri 04:18:00 PM 39.7231 -153.7486 83° East 523 602 36,000  Level FlightAware Transoceanic
Fri 04:19:00 PM 39.7398 -153.5620 83° East 523 602 36,000  Level FlightAware Transoceanic
Fri 04:20:00 PM 39.7562 -153.3752 84° East 523 602 36,000  Level FlightAware Transoceanic
Fri 04:21:00 PM 39.7723 -153.1884 84° East 523 602 36,000  Level FlightAware Transoceanic
Fri 04:22:00 PM 39.7882 -153.0014 84° East 523 602 36,000  Level FlightAware Transoceanic
Fri 04:23:00 PM 39.8036 -152.8144 84° East 523 602 36,000  Level FlightAware Transoceanic
Fri 04:24:00 PM 39.8189 -152.6273 84° East 523 602 36,000  Level FlightAware Transoceanic
Fri 04:25:00 PM 39.8338 -152.4401 84° East 523 602 36,000  Level FlightAware Transoceanic
Fri 04:26:00 PM 39.8484 -152.2529 84° East 523 602 36,000  Level FlightAware Transoceanic
Fri 04:26:12 PM 39.8500 -152.2500 84° East 520 598 36,000  Level Oakland Oceanic (ODAPS)
Fri 04:27:00 PM 39.8627 -152.0655 84° East 523 602 36,000  Level FlightAware Transoceanic
Fri 04:28:00 PM 39.8767 -151.8781 85° East 523 602 36,000  Level FlightAware Transoceanic
Fri 04:29:00 PM 39.8904 -151.6906 85° East 523 602 36,000  Level FlightAware Transoceanic
Fri 04:30:00 PM 39.9038 -151.5030 85° East 523 602 36,000  Level FlightAware Transoceanic
Fri 04:31:00 PM 39.9168 -151.3154 85° East 523 602 36,000  Level FlightAware Transoceanic
Fri 04:32:00 PM 39.9304 -151.1262 85° East 520 598 36,000  Level FlightAware Transoceanic
Fri 04:33:00 PM 39.9428 -150.9387 85° East 520 598 36,000  Level FlightAware Transoceanic
Fri 04:34:00 PM 39.9548 -150.7511 85° East 520 598 36,000  Level FlightAware Transoceanic
Fri 04:35:00 PM 39.9666 -150.5634 85° East 520 598 36,000  Level FlightAware Transoceanic
Fri 04:36:00 PM 39.9780 -150.3757 86° East 520 598 36,000  Level FlightAware Transoceanic
Fri 04:37:00 PM 39.9892 -150.1879 86° East 520 598 36,000  Level FlightAware Transoceanic
Fri 04:38:00 PM 40.0000 -150.0000 87° East 520 598 36,000  Level FlightAware Transoceanic
Fri 04:38:29 PM 40.0000 -150.0000 87° East 506 582 36,000  Level Oakland Oceanic (ODAPS)
Fri 04:39:00 PM 40.0080 -149.8117 87° East 520 598 36,000  Level FlightAware Transoceanic
Fri 04:39:55 PM 40.0167 -149.6833 87° East 499 574 36,000  Level Oakland Oceanic (ODAPS)
Fri 04:40:00 PM 40.0156 -149.6234 87° East 520 598 36,000  Level FlightAware Transoceanic
Fri 04:41:00 PM 40.0230 -149.4350 87° East 520 598 36,000  Level FlightAware Transoceanic
Fri 04:42:00 PM 40.0300 -149.2465 87° East 520 598 36,000  Level FlightAware Transoceanic
Fri 04:43:00 PM 40.0367 -149.0581 87° East 520 598 36,000  Level FlightAware Transoceanic
Fri 04:44:00 PM 40.0418 -148.9107 87° East 506 582 36,000  Level FlightAware Transoceanic
Fri 04:45:00 PM 40.0478 -148.7290 88° East 506 582 36,000  Level FlightAware Transoceanic
Fri 04:46:00 PM 40.0553 -148.5883 88° East 499 574 36,000  Level FlightAware Transoceanic
Fri 04:47:00 PM 40.0607 -148.4057 88° East 499 574 36,000  Level FlightAware Transoceanic
Fri 04:48:00 PM 40.0658 -148.2231 88° East 499 574 36,000  Level FlightAware Transoceanic
Fri 04:49:00 PM 40.0707 -148.0404 88° East 499 574 36,000  Level FlightAware Transoceanic
Fri 04:50:00 PM 40.0753 -147.8578 88° East 499 574 36,000  Level FlightAware Transoceanic
Fri 04:51:00 PM 40.0796 -147.6750 88° East 499 574 36,000  Level FlightAware Transoceanic
Fri 04:52:00 PM 40.0836 -147.4923 88° East 499 574 36,000  Level FlightAware Transoceanic
Fri 04:53:00 PM 40.0873 -147.3095 89° East 499 574 36,000  Level FlightAware Transoceanic
Fri 04:53:47 PM 40.0833 -147.1833 89° East 499 574 36,000  Level Oakland Oceanic (ODAPS)
Fri 04:54:00 PM 40.0907 -147.1268 89° East 499 574 36,000  Level FlightAware Transoceanic
Fri 04:55:00 PM 40.0938 -146.9440 89° East 499 574 36,000  Level FlightAware Transoceanic
Fri 04:56:00 PM 40.0967 -146.7612 89° East 499 574 36,000  Level FlightAware Transoceanic
Fri 04:57:00 PM 40.0992 -146.5783 89° East 499 574 36,000  Level FlightAware Transoceanic
Fri 04:58:00 PM 40.1015 -146.3955 89° East 499 574 36,000  Level FlightAware Transoceanic
Fri 04:59:00 PM 40.1035 -146.2126 89° East 499 574 36,000  Level FlightAware Transoceanic
Fri 05:00:00 PM 40.0994 -146.0778 89° East 499 574 36,000  Level FlightAware Transoceanic
Fri 05:01:00 PM 40.1011 -145.8935 89° East 499 574 36,000  Level FlightAware Transoceanic
Fri 05:02:00 PM 40.1024 -145.7092 90° East 499 574 36,000  Level FlightAware Transoceanic
Fri 05:03:00 PM 40.1035 -145.5248 90° East 499 574 36,000  Level FlightAware Transoceanic
Fri 05:04:00 PM 40.1043 -145.3405 90° East 499 574 36,000  Level FlightAware Transoceanic
Fri 05:05:00 PM 40.1048 -145.1562 90° East 499 574 36,000  Level FlightAware Transoceanic
Fri 05:06:00 PM 40.1050 -144.9718 90° East 499 574 36,000  Level FlightAware Transoceanic
Fri 05:07:00 PM 40.1049 -144.7875 90° East 499 574 36,000  Level FlightAware Transoceanic
Fri 05:07:45 PM 40.1000 -144.6500 90° East 503 579 36,000  Level Oakland Oceanic (ODAPS)
Fri 05:08:00 PM 40.1045 -144.6032 90° East 499 574 36,000  Level FlightAware Transoceanic
Fri 05:09:00 PM 40.1038 -144.4189 90° East 499 574 36,000  Level FlightAware Transoceanic
Fri 05:10:00 PM 40.1029 -144.2345 90° East 499 574 36,000  Level FlightAware Transoceanic
Fri 05:11:00 PM 40.1016 -144.0502 91° East 499 574 36,000  Level FlightAware Transoceanic
Fri 05:12:00 PM 40.1000 -143.8659 91° East 499 574 36,000  Level FlightAware Transoceanic
Fri 05:13:00 PM 40.0982 -143.6816 91° East 499 574 36,000  Level FlightAware Transoceanic
Fri 05:14:00 PM 40.0914 -143.3969 91° East 503 579 36,000  Level FlightAware Transoceanic
Fri 05:15:00 PM 40.0890 -143.2180 91° East 503 579 36,000  Level FlightAware Transoceanic
Fri 05:16:00 PM 40.0864 -143.0390 91° East 503 579 36,000  Level FlightAware Transoceanic
Fri 05:17:00 PM 40.0835 -142.8600 91° East 503 579 36,000  Level FlightAware Transoceanic
Fri 05:18:00 PM 40.0804 -142.6811 91° East 503 579 36,000  Level FlightAware Transoceanic
Fri 05:19:00 PM 40.0770 -142.5022 91° East 503 579 36,000  Level FlightAware Transoceanic
Fri 05:20:00 PM 40.0732 -142.3233 92° East 503 579 36,000  Level FlightAware Transoceanic
Fri 05:21:00 PM 40.0693 -142.1444 92° East 503 579 36,000  Level FlightAware Transoceanic
Fri 05:21:31 PM 40.0667 -142.1167 92° East 506 582 36,000  Level Oakland Oceanic (ODAPS)
Fri 05:22:00 PM 40.0650 -141.9656 92° East 503 579 36,000  Level FlightAware Transoceanic
Fri 05:23:00 PM 40.0605 -141.7867 92° East 503 579 36,000  Level FlightAware Transoceanic
Fri 05:24:00 PM 40.0556 -141.6079 92° East 503 579 36,000  Level FlightAware Transoceanic
Fri 05:25:00 PM 40.0506 -141.4291 92° East 503 579 36,000  Level FlightAware Transoceanic
Fri 05:26:00 PM 40.0452 -141.2504 92° East 503 579 36,000  Level FlightAware Transoceanic
Fri 05:27:00 PM 40.0382 -141.0578 92° East 506 582 36,000  Level FlightAware Transoceanic
Fri 05:28:00 PM 40.0325 -140.8814 92° East 506 582 36,000  Level FlightAware Transoceanic
Fri 05:29:00 PM 40.0265 -140.7051 93° East 506 582 36,000  Level FlightAware Transoceanic
Fri 05:30:00 PM 40.0203 -140.5288 93° East 506 582 36,000  Level FlightAware Transoceanic
Fri 05:31:00 PM 40.0138 -140.3525 93° East 506 582 36,000  Level FlightAware Transoceanic
Fri 05:32:00 PM 40.0070 -140.1762 93° East 506 582 36,000  Level FlightAware Transoceanic
Fri 05:33:00 PM 40.0000 -140.0000 101° East 506 582 36,000  Level FlightAware Transoceanic
Fri 05:34:00 PM 39.9729 -139.8230 101° East 506 582 36,000  Level FlightAware Transoceanic
Fri 05:34:12 PM 40.0000 -140.0000 101° East 486 559 36,000  Level Oakland Oceanic (ODAPS)
Fri 05:35:00 PM 39.9455 -139.6462 101° East 506 582 36,000 250 Level FlightAware Transoceanic
Fri 05:35:24 PM 39.9500 -139.6167 102° East 480 552 36,300  Climbing Oakland Oceanic (ODAPS)
Fri 05:36:00 PM 39.9179 -139.4695 102° East 506 582 36,000 -188 Descending FlightAware Transoceanic
Fri 05:37:00 PM 39.8900 -139.2930 102° East 506 582 36,000  Level FlightAware Transoceanic
Fri 05:38:00 PM 39.8618 -139.1166 102° East 506 582 36,000  Level FlightAware Transoceanic
Fri 05:39:00 PM 39.8334 -138.9403 102° East 506 582 36,000  Level FlightAware Transoceanic
Fri 05:40:00 PM 39.8081 -138.7851 102° East 486 559 36,000 150 Level FlightAware Transoceanic
Fri 05:41:00 PM 39.7855 -138.5982 102° East 480 552 36,300 150 Climbing FlightAware Transoceanic
Fri 05:42:00 PM 39.7572 -138.4289 102° East 480 552 36,300  Level FlightAware Transoceanic
Fri 05:43:00 PM 39.7287 -138.2598 102° East 480 552 36,300  Level FlightAware Transoceanic
Fri 05:44:00 PM 39.6999 -138.0908 103° East 480 552 36,300  Level FlightAware Transoceanic
Fri 05:45:00 PM 39.6709 -137.9220 103° East 480 552 36,300  Level FlightAware Transoceanic
Fri 05:46:00 PM 39.6417 -137.7533 103° East 480 552 36,300  Level FlightAware Transoceanic
Fri 05:47:00 PM 39.6122 -137.5847 103° East 480 552 36,300  Level FlightAware Transoceanic
Fri 05:48:00 PM 39.5824 -137.4163 103° East 480 552 36,300  Level FlightAware Transoceanic
Fri 05:49:00 PM 39.5524 -137.2480 103° East 480 552 36,300 553 Level FlightAware Transoceanic
Fri 05:49:16 PM 39.5500 -137.2500 103° East 475 547 37,000  Climbing Oakland Oceanic (ODAPS)
Fri 05:50:00 PM 39.5222 -137.0799 103° East 480 552 36,300 -404 Descending FlightAware Transoceanic
Fri 05:51:00 PM 39.4917 -136.9119 103° East 480 552 36,300  Level FlightAware Transoceanic
Fri 05:52:00 PM 39.4610 -136.7441 103° East 480 552 36,300  Level FlightAware Transoceanic
Fri 05:53:00 PM 39.4301 -136.5764 103° East 480 552 36,300  Level FlightAware Transoceanic
Fri 05:54:00 PM 39.3989 -136.4089 104° East 480 552 36,300 350 Level FlightAware Transoceanic
Fri 05:55:00 PM 39.3653 -136.2432 104° East 475 547 37,000 350 Climbing FlightAware Transoceanic
Fri 05:56:00 PM 39.3337 -136.0760 104° East 475 547 37,000  Level FlightAware Transoceanic
Fri 05:57:00 PM 39.3019 -135.9088 104° East 475 547 37,000  Level FlightAware Transoceanic
Fri 05:58:00 PM 39.2698 -135.7419 104° East 475 547 37,000  Level FlightAware Transoceanic
Fri 05:59:00 PM 39.2374 -135.5751 104° East 475 547 37,000  Level FlightAware Transoceanic
Fri 06:00:00 PM 39.2049 -135.4084 104° East 475 547 37,000  Level FlightAware Transoceanic
Fri 06:01:00 PM 39.1721 -135.2419 104° East 475 547 37,000  Level FlightAware Transoceanic
Fri 06:02:00 PM 39.1390 -135.0755 104° East 475 547 37,000  Level FlightAware Transoceanic
Fri 06:03:00 PM 39.1057 -134.9094 105° East 475 547 37,000  Level FlightAware Transoceanic
Fri 06:03:08 PM 39.1167 -134.9500 105° East 468 539 37,000  Level Oakland Oceanic (ODAPS)
Fri 06:04:00 PM 39.0722 -134.7433 105° East 475 547 37,000  Level FlightAware Transoceanic
Fri 06:05:00 PM 39.0385 -134.5775 105° East 475 547 37,000  Level FlightAware Transoceanic
Fri 06:06:00 PM 39.0045 -134.4117 105° East 475 547 37,000  Level FlightAware Transoceanic
Fri 06:07:00 PM 38.9702 -134.2462 105° East 475 547 37,000  Level FlightAware Transoceanic
Fri 06:08:00 PM 38.9358 -134.0808 105° East 475 547 37,000  Level FlightAware Transoceanic
Fri 06:09:00 PM 38.9169 -133.9801 105° East 468 539 37,000  Level FlightAware Transoceanic
Fri 06:10:00 PM 38.8829 -133.8190 105° East 468 539 37,000  Level FlightAware Transoceanic
Fri 06:11:00 PM 38.8486 -133.6580 105° East 468 539 37,000  Level FlightAware Transoceanic
Fri 06:12:00 PM 38.8141 -133.4972 105° East 468 539 37,000  Level FlightAware Transoceanic
Fri 06:13:00 PM 38.7793 -133.3365 106° East 468 539 37,000  Level FlightAware Transoceanic
Fri 06:14:00 PM 38.7444 -133.1760 106° East 468 539 37,000  Level FlightAware Transoceanic
Fri 06:15:00 PM 38.7092 -133.0157 106° East 468 539 37,000  Level FlightAware Transoceanic
Fri 06:16:00 PM 38.6738 -132.8555 106° East 468 539 37,000  Level FlightAware Transoceanic
Fri 06:17:00 PM 38.6382 -132.6955 106° East 468 539 37,000  Level FlightAware Transoceanic
Fri 06:17:00 PM 38.6500 -132.7500 106° East 463 533 37,000  Level Oakland Oceanic (ODAPS)
Fri 06:18:00 PM 38.6024 -132.5356 106° East 468 539 37,000  Level FlightAware Transoceanic
Fri 06:19:00 PM 38.5663 -132.3759 106° East 468 539 37,000  Level FlightAware Transoceanic
Fri 06:20:00 PM 38.5301 -132.2164 106° East 468 539 37,000  Level FlightAware Transoceanic
Fri 06:21:00 PM 38.4936 -132.0570 106° East 468 539 37,000  Level FlightAware Transoceanic
Fri 06:22:00 PM 38.4569 -131.8978 106° East 468 539 37,000  Level FlightAware Transoceanic
Fri 06:23:00 PM 38.4279 -131.7738 107° East 463 533 37,000  Level FlightAware Transoceanic
Fri 06:24:00 PM 38.3901 -131.6117 107° East 463 533 37,000  Level FlightAware Transoceanic
Fri 06:25:00 PM 38.3521 -131.4497 107° East 463 533 37,000  Level FlightAware Transoceanic
Fri 06:26:00 PM 38.3139 -131.2880 107° East 463 533 37,000  Level FlightAware Transoceanic
Fri 06:27:00 PM 38.2754 -131.1264 107° East 463 533 37,000  Level FlightAware Transoceanic
Fri 06:28:00 PM 38.2367 -130.9649 107° East 463 533 37,000  Level FlightAware Transoceanic
Fri 06:29:00 PM 38.1978 -130.8037 107° East 463 533 37,000  Level FlightAware Transoceanic
Fri 06:30:00 PM 38.1587 -130.6426 107° East 463 533 37,000  Level FlightAware Transoceanic
Fri 06:30:52 PM 38.1500 -130.5833 108° East 457 526 37,000  Level Oakland Oceanic (ODAPS)
Fri 06:31:00 PM 38.1194 -130.4817 107° East 463 533 37,000  Level FlightAware Transoceanic
Fri 06:32:00 PM 38.0798 -130.3210 107° East 463 533 37,000  Level FlightAware Transoceanic
Fri 06:33:00 PM 38.0400 -130.1604 108° East 463 533 37,000  Level FlightAware Transoceanic
Fri 06:34:00 PM 38.0000 -130.0000 101° East 463 533 37,000  Level FlightAware Transoceanic
Fri 06:34:59 PM 38.0000 -130.0000 101° East 465 535 37,000  Level Oakland Oceanic (ODAPS)
Fri 06:35:00 PM 37.9742 -129.8323 101° East 463 533 37,000  Level FlightAware Transoceanic
Fri 06:36:00 PM 37.9482 -129.6647 101° East 463 533 37,000  Level FlightAware Transoceanic
Fri 06:37:00 PM 37.9220 -129.4972 101° East 457 526 37,000  Level FlightAware Transoceanic
Fri 06:38:00 PM 37.8955 -129.3299 101° East 457 526 37,000  Level FlightAware Transoceanic
Fri 06:39:00 PM 37.8688 -129.1626 101° East 457 526 37,000  Level FlightAware Transoceanic
Fri 06:40:00 PM 37.8418 -128.9955 102° East 457 526 37,000  Level FlightAware Transoceanic
Fri 06:41:00 PM 37.8246 -128.8900 102° East 465 535 37,000  Level FlightAware Transoceanic
Fri 06:42:00 PM 37.7988 -128.7319 102° East 465 535 37,000  Level FlightAware Transoceanic
Fri 06:43:00 PM 37.7726 -128.5739 102° East 465 535 37,000  Level FlightAware Transoceanic
Fri 06:44:00 PM 37.7463 -128.4160 102° East 465 535 37,000  Level FlightAware Transoceanic
Fri 06:44:46 PM 37.7500 -128.4000 102° East 463 533 37,000  Level Oakland Oceanic (ODAPS)
Fri 06:45:00 PM 37.7198 -128.2582 102° East 465 535 37,000  Level FlightAware Transoceanic
Fri 06:46:00 PM 37.6931 -128.1005 102° East 465 535 37,000  Level FlightAware Transoceanic
Fri 06:47:00 PM 37.6661 -127.9430 102° East 465 535 37,000  Level FlightAware Transoceanic
Fri 06:48:00 PM 37.6389 -127.7855 102° East 465 535 37,000  Level FlightAware Transoceanic
Fri 06:49:00 PM 37.6116 -127.6282 102° East 465 535 37,000  Level FlightAware Transoceanic
Fri 06:50:00 PM 37.5852 -127.4656 103° East 463 533 37,000 -71 Level FlightAware Transoceanic
Fri 06:50:24 PM 37.5814 -127.5036 93° East 459 528 36,900  Descending Oakland Center
Fri 06:51:00 PM 37.5570 -127.3103 103° East 463 533 37,000 98 Climbing FlightAware Transoceanic
Fri 06:51:25 PM 37.5528 -127.3475 103° East 459 528 37,000  Level Oakland Center
Fri 06:52:00 PM 37.5286 -127.1551 103° East 463 533 37,000  Level FlightAware Transoceanic
Fri 06:52:27 PM 37.5264 -127.1906 102° East 458 527 37,000  Level Oakland Center
Fri 06:53:00 PM 37.5000 -127.0000 93° East 463 533 37,000 -97 Level FlightAware Transoceanic
Fri 06:53:29 PM 37.4981 -127.0353 103° East 457 526 36,900  Descending Oakland Center
Fri 06:54:00 PM 37.4928 -126.8342 93° East 463 533 37,000 98 Climbing FlightAware Transoceanic
Fri 06:54:30 PM 37.4806 -126.8453 97° East 458 527 37,000  Level Oakland Center
Fri 06:55:00 PM 37.4853 -126.6684 93° East 463 533 37,000  Level FlightAware Transoceanic
Fri 06:55:32 PM 37.4419 -126.6906 107° East 460 529 37,000 -64 Level Oakland Center
Fri 06:56:34 PM 37.4061 -126.5358 106° East 463 533 36,900 -49 Descending Oakland Center
Fri 06:57:35 PM 37.3711 -126.3836 106° East 456 525 36,900 49 Level Oakland Center
Fri 06:58:37 PM 37.3336 -126.2297 107° East 460 529 37,000 48 Climbing Oakland Center
Fri 06:59:39 PM 37.2967 -126.0753 107° East 462 532 37,000  Level Oakland Center
Fri 07:00:40 PM 37.2600 -125.9208 107° East 463 533 37,000  Level Oakland Center
Fri 07:01:42 PM 37.2136 -125.7361 107° East 464 534 37,000  Level Oakland Center
Fri 07:02:43 PM 37.1761 -125.5819 107° East 463 533 37,000  Level Oakland Center
Fri 07:03:45 PM 37.1392 -125.4286 107° East 462 532 37,000  Level Oakland Center
Fri 07:04:47 PM 37.1014 -125.2736 107° East 465 535 37,000 -49 Level Oakland Center
Fri 07:05:48 PM 37.0631 -125.1200 107° East 465 535 36,900  Descending Oakland Center
Fri 07:06:50 PM 37.0242 -124.9647 107° East 468 539 37,000  Climbing Oakland Center
Fri 07:07:51 PM 36.9853 -124.8117 108° East 466 536 36,900 -49 Descending Oakland Center
Fri 07:08:53 PM 36.9386 -124.6281 108° East 464 534 36,900 48 Level Oakland Center
Fri 07:09:55 PM 36.8992 -124.4733 108° East 468 539 37,000 49 Climbing Oakland Center
Fri 07:10:56 PM 36.8589 -124.3197 108° East 468 539 37,000 -49 Level Oakland Center
Fri 07:11:58 PM 36.8189 -124.1656 108° East 470 541 36,900  Descending Oakland Center
Fri 07:12:59 PM 36.7761 -124.0089 109° East 474 545 37,000 16 Climbing Oakland Center
Fri 07:18:22 PM 36.5560 -123.1630 109° East 480 552 37,000  Level FlightAware ADS-B
Fri 07:19:47 PM 36.4920 -122.9290 109° East 483 556 37,000  Level FlightAware ADS-B
Fri 07:20:37 PM 36.4580 -122.8020 108° East 485 558 37,000  Level FlightAware ADS-B
Fri 07:21:17 PM 36.4310 -122.7050 109° East 486 559 37,000  Level FlightAware ADS-B
Fri 07:22:07 PM 36.3940 -122.5680 109° East 484 557 37,000  Level FlightAware ADS-B
Fri 07:22:47 PM 36.3630 -122.4540 109° East 485 558 37,000  Level FlightAware ADS-B
Fri 07:23:27 PM 36.3330 -122.3480 109° East 485 558 37,000  Level FlightAware ADS-B
Fri 07:24:12 PM 36.3000 -122.2300 109° East 486 559 37,000  Level FlightAware ADS-B
Fri 07:24:52 PM 36.2710 -122.1260 109° East 486 559 37,000  Level FlightAware ADS-B
Fri 07:25:32 PM 36.2420 -122.0220 109° East 487 560 37,000  Level FlightAware ADS-B
Fri 07:26:47 PM 36.1890 -121.8340 109° East 487 560 37,000  Level FlightAware ADS-B
Fri 07:27:27 PM 36.1560 -121.7170 109° East 486 559 37,000  Level FlightAware ADS-B
Fri 07:28:12 PM 36.1230 -121.6020 110° East 486 559 37,000  Level FlightAware ADS-B
Fri 07:28:47 PM 36.1000 -121.5190 109° East 486 559 37,000  Level FlightAware ADS-B
Fri 07:29:32 PM 36.0630 -121.3920 110° East 487 560 37,000  Level FlightAware ADS-B
Fri 07:30:17 PM 36.0190 -121.2760 115° Southeast 488 562 37,000  Level FlightAware ADS-B
Fri 07:30:57 PM 35.9770 -121.1800 118° Southeast 488 562 37,000  Level FlightAware ADS-B
Fri 07:31:42 PM 35.9280 -121.0730 119° Southeast 489 563 37,000  Level FlightAware ADS-B
Fri 07:32:22 PM 35.8830 -120.9760 120° Southeast 489 563 37,000  Level FlightAware ADS-B
Fri 07:33:02 PM 35.8370 -120.8760 120° Southeast 491 565 37,000  Level FlightAware ADS-B
Fri 07:33:47 PM 35.7880 -120.7700 120° Southeast 491 565 37,000  Level FlightAware ADS-B
Fri 07:34:27 PM 35.7430 -120.6730 120° Southeast 491 565 37,000  Level FlightAware ADS-B
Fri 07:35:12 PM 35.6910 -120.5620 120° Southeast 492 566 37,000  Level FlightAware ADS-B
Fri 07:35:52 PM 35.6460 -120.4660 120° Southeast 493 567 37,000  Level FlightAware ADS-B
Fri 07:36:47 PM 35.5840 -120.3340 120° Southeast 494 568 37,000  Level FlightAware ADS-B
Fri 07:37:32 PM 35.5340 -120.2260 120° Southeast 495 570 37,000  Level FlightAware ADS-B
Fri 07:38:12 PM 35.4860 -120.1250 120° Southeast 495 570 37,000  Level FlightAware ADS-B
Fri 07:38:57 PM 35.4380 -120.0210 120° Southeast 496 571 37,000 -71 Level FlightAware ADS-B
Fri 07:39:37 PM 35.3890 -119.9200 121° Southeast 491 565 36,900 -1,050 Descending FlightAware ADS-B
Fri 07:40:17 PM 35.3420 -119.8220 120° Southeast 478 550 35,600 -1,906 Descending FlightAware ADS-B
Fri 07:41:02 PM 35.2940 -119.7200 120° Southeast 468 539 34,200 -1,906 Descending FlightAware ADS-B
Fri 07:41:42 PM 35.2460 -119.6390 126° Southeast 461 531 32,900 -1,950 Descending FlightAware ADS-B
Fri 07:42:22 PM 35.1780 -119.5730 142° Southeast 455 524 31,600 -1,976 Descending FlightAware ADS-B
Fri 07:43:07 PM 35.1000 -119.5070 145° Southeast 448 516 30,100 -1,976 Descending FlightAware ADS-B
Fri 07:43:47 PM 35.0330 -119.4510 146° Southeast 442 509 28,800 -1,875 Descending FlightAware ADS-B
Fri 07:44:27 PM 34.9710 -119.3990 145° Southeast 436 502 27,600 -1,271 Descending FlightAware ADS-B
Fri 07:45:12 PM 34.8930 -119.3320 145° Southeast 430 495 27,000 -424 Descending FlightAware ADS-B
Fri 07:45:52 PM 34.8250 -119.2750 145° Southeast 430 495 27,000 -821 Level FlightAware ADS-B
Fri 07:46:47 PM 34.7360 -119.1990 145° Southeast 423 487 25,700 -1,314 Descending FlightAware ADS-B
Fri 07:47:37 PM 34.6620 -119.1360 145° Southeast 428 493 24,700 -600 Descending FlightAware ADS-B
Fri 07:48:27 PM 34.5940 -119.0760 144° Southeast 428 493 24,700  Level FlightAware ADS-B
Fri 07:49:07 PM 34.5400 -119.0280 144° Southeast 428 493 24,700 -5,200 Level FlightAware ADS-B
Fri 07:49:42 PM 34.4590 -118.9660 148° Southeast 415 478 18,200 -6,071 Descending FlightAware ADS-B
Fri 07:50:32 PM 34.4590 -118.9660 148° Southeast 412 474 16,100 -1,326 Descending FlightAware ADS-B
Fri 07:51:17 PM 34.3950 -118.9120 145° Southeast 412 474 16,100 -2,047 Level FlightAware ADS-B
Fri 07:51:57 PM 34.2410 -118.8380 158° South 355 409 13,200 -2,320 Descending FlightAware ADS-B
Fri 07:52:32 PM 34.1930 -118.8210 164° South 355 409 13,200 -692 Level FlightAware ADS-B
Fri 07:53:17 PM 34.1400 -118.8020 163° South 12,000 -947 Descending FlightAware ADS-B
Fri 07:54:07 PM 34.0680 -118.7750 163° South 315 362 11,700 -720 Descending FlightAware ADS-B
Fri 07:54:32 PM 34.0310 -118.7400 142° Southeast 290 334 11,100 -2,000 Descending FlightAware ADS-B
Fri 07:54:52 PM 34.0330 -118.7000 87° East 276 318 10,200 -1,600 Descending FlightAware ADS-B
Fri 07:55:17 PM 34.0290 -118.6630 97° East 264 304 9,900 -831 Descending FlightAware ADS-B
Fri 07:55:57 PM 34.0250 -118.6070 95° East 240 276 9,300 -923 Descending FlightAware ADS-B
Fri 07:56:22 PM 34.0220 -118.5740 96° East 232 267 8,900 -1,091 Descending FlightAware ADS-B
Fri 07:56:52 PM 34.0180 -118.5370 97° East 231 266 8,300 -982 Descending FlightAware ADS-B
Fri 07:57:17 PM 34.0150 -118.5060 97° East 221 254 8,000 -686 Descending FlightAware ADS-B
Fri 07:57:27 PM 34.0140 -118.4960 97° East 216 249 7,900 -1,200 Descending FlightAware ADS-B
Fri 07:58:02 PM 34.0110 -118.4610 96° East 7,300 -1,280 Descending FlightAware ADS-B
Fri 07:58:42 PM 34.0150 -118.4090 85° East 192 221 6,300 -1,500 Descending FlightAware ADS-B
Fri 07:59:02 PM 34.0170 -118.3890 83° East 192 221 5,800 -1,457 Descending FlightAware ADS-B
Fri 07:59:52 PM 34.0230 -118.3360 82° East 197 227 4,600 -1,400 Descending FlightAware ADS-B
Fri 08:00:02 PM 34.0240 -118.3270 82° East 196 226 4,400 -1,091 Descending FlightAware ADS-B
Fri 08:00:47 PM 34.0290 -118.2810 83° East 190 219 3,600 -943 Descending FlightAware ADS-B
Fri 08:01:12 PM 34.0320 -118.2520 83° East 193 222 3,300 -600 Descending FlightAware ADS-B
Fri 08:01:47 PM 34.0360 -118.2150 83° East 191 220 3,000 -500 Descending FlightAware ADS-B
Fri 08:02:12 PM 34.0240 -118.1920 122° Southeast 189 217 2,800 -450 Descending FlightAware ADS-B
Fri 08:02:27 PM 34.0130 -118.1900 171° South 188 216 2,700 -533 Descending FlightAware ADS-B
Fri 08:02:57 PM 33.9920 -118.2060 212° Southwest 190 219 2,400 -514 Descending FlightAware ADS-B
Fri 08:03:37 PM 33.9720 -118.2420 236° Southwest 186 214 2,100 -436 Descending FlightAware ADS-B
Fri 08:03:52 PM 33.9670 -118.2590 250° West 183 211 2,000 -109 Descending FlightAware ADS-B
Fri 08:04:32 PM 33.9620 -118.2960 261° West 185 213 2,000  Level FlightAware ADS-B

Login

Don't have an account? Register now (free) for customized features, flight alerts, and more!